sensor_id;sensor_type;location;lat;lon;timestamp;P1;durP1;ratioP1;P2;durP2;ratioP2
4268;SDS011;2148;48.554;7.834;2022-12-07T00:00:25;16.93;;;13.70;;
4268;SDS011;2148;48.554;7.834;2022-12-07T00:02:50;14.10;;;12.50;;
4268;SDS011;2148;48.554;7.834;2022-12-07T00:05:15;15.27;;;12.87;;
4268;SDS011;2148;48.554;7.834;2022-12-07T00:07:41;13.83;;;12.00;;
4268;SDS011;2148;48.554;7.834;2022-12-07T00:10:06;15.53;;;12.60;;
4268;SDS011;2148;48.554;7.834;2022-12-07T00:12:31;16.70;;;12.53;;
4268;SDS011;2148;48.554;7.834;2022-12-07T00:14:57;15.57;;;12.83;;
4268;SDS011;2148;48.554;7.834;2022-12-07T00:17:22;15.33;;;11.57;;
4268;SDS011;2148;48.554;7.834;2022-12-07T00:19:47;14.97;;;11.63;;
4268;SDS011;2148;48.554;7.834;2022-12-07T00:22:12;13.10;;;11.43;;
4268;SDS011;2148;48.554;7.834;2022-12-07T00:24:38;14.83;;;11.97;;
4268;SDS011;2148;48.554;7.834;2022-12-07T00:27:03;14.23;;;11.57;;
4268;SDS011;2148;48.554;7.834;2022-12-07T00:29:28;15.00;;;12.37;;
4268;SDS011;2148;48.554;7.834;2022-12-07T00:31:53;13.13;;;11.57;;
4268;SDS011;2148;48.554;7.834;2022-12-07T00:34:19;12.87;;;11.50;;
4268;SDS011;2148;48.554;7.834;2022-12-07T00:36:45;14.03;;;11.53;;
4268;SDS011;2148;48.554;7.834;2022-12-07T00:39:11;14.07;;;10.97;;
4268;SDS011;2148;48.554;7.834;2022-12-07T00:41:36;13.10;;;11.70;;
4268;SDS011;2148;48.554;7.834;2022-12-07T00:44:01;14.13;;;11.30;;
4268;SDS011;2148;48.554;7.834;2022-12-07T00:46:27;13.37;;;11.40;;
4268;SDS011;2148;48.554;7.834;2022-12-07T00:48:53;12.70;;;11.23;;
4268;SDS011;2148;48.554;7.834;2022-12-07T00:51:19;13.27;;;11.57;;
4268;SDS011;2148;48.554;7.834;2022-12-07T00:53:46;15.47;;;11.37;;
4268;SDS011;2148;48.554;7.834;2022-12-07T00:56:13;13.67;;;12.00;;
4268;SDS011;2148;48.554;7.834;2022-12-07T00:58:40;13.70;;;11.80;;
4268;SDS011;2148;48.554;7.834;2022-12-07T01:01:06;14.30;;;11.80;;
4268;SDS011;2148;48.554;7.834;2022-12-07T01:03:32;15.40;;;11.90;;
4268;SDS011;2148;48.554;7.834;2022-12-07T01:05:57;14.33;;;11.87;;
4268;SDS011;2148;48.554;7.834;2022-12-07T01:08:23;13.83;;;12.17;;
4268;SDS011;2148;48.554;7.834;2022-12-07T01:10:56;15.00;;;11.77;;
4268;SDS011;2148;48.554;7.834;2022-12-07T01:13:22;15.50;;;11.60;;
4268;SDS011;2148;48.554;7.834;2022-12-07T01:15:48;13.13;;;10.90;;
4268;SDS011;2148;48.554;7.834;2022-12-07T01:18:13;13.13;;;11.00;;
4268;SDS011;2148;48.554;7.834;2022-12-07T01:20:38;12.70;;;10.80;;
4268;SDS011;2148;48.554;7.834;2022-12-07T01:23:04;12.23;;;10.93;;
4268;SDS011;2148;48.554;7.834;2022-12-07T01:25:29;14.23;;;11.17;;
4268;SDS011;2148;48.554;7.834;2022-12-07T01:27:54;13.17;;;10.60;;
4268;SDS011;2148;48.554;7.834;2022-12-07T01:30:20;12.60;;;9.93;;
4268;SDS011;2148;48.554;7.834;2022-12-07T01:32:45;14.93;;;11.07;;
4268;SDS011;2148;48.554;7.834;2022-12-07T01:35:10;13.23;;;10.50;;
4268;SDS011;2148;48.554;7.834;2022-12-07T01:37:36;12.53;;;10.53;;
4268;SDS011;2148;48.554;7.834;2022-12-07T01:40:02;12.03;;;10.50;;
4268;SDS011;2148;48.554;7.834;2022-12-07T01:42:29;12.77;;;10.67;;
4268;SDS011;2148;48.554;7.834;2022-12-07T01:47:57;11.33;;;10.10;;
4268;SDS011;2148;48.554;7.834;2022-12-07T01:50:24;11.63;;;10.20;;
4268;SDS011;2148;48.554;7.834;2022-12-07T01:52:50;11.90;;;10.33;;
4268;SDS011;2148;48.554;7.834;2022-12-07T01:55:16;13.10;;;10.50;;
4268;SDS011;2148;48.554;7.834;2022-12-07T01:57:43;12.67;;;10.77;;
4268;SDS011;2148;48.554;7.834;2022-12-07T02:00:11;11.97;;;9.93;;
4268;SDS011;2148;48.554;7.834;2022-12-07T02:02:38;11.20;;;9.37;;
4268;SDS011;2148;48.554;7.834;2022-12-07T02:05:07;12.40;;;9.97;;
4268;SDS011;2148;48.554;7.834;2022-12-07T02:07:34;11.97;;;9.87;;
4268;SDS011;2148;48.554;7.834;2022-12-07T02:13:07;11.57;;;9.93;;
4268;SDS011;2148;48.554;7.834;2022-12-07T02:15:47;13.70;;;10.17;;
4268;SDS011;2148;48.554;7.834;2022-12-07T02:18:22;12.73;;;10.73;;
4268;SDS011;2148;48.554;7.834;2022-12-07T02:20:57;10.60;;;9.37;;
4268;SDS011;2148;48.554;7.834;2022-12-07T02:26:51;13.03;;;9.90;;
4268;SDS011;2148;48.554;7.834;2022-12-07T02:32:13;11.97;;;9.40;;
4268;SDS011;2148;48.554;7.834;2022-12-07T02:34:51;12.00;;;10.23;;
4268;SDS011;2148;48.554;7.834;2022-12-07T02:37:24;12.33;;;9.83;;
4268;SDS011;2148;48.554;7.834;2022-12-07T02:40:29;12.53;;;9.87;;
4268;SDS011;2148;48.554;7.834;2022-12-07T02:43:08;11.60;;;10.40;;
4268;SDS011;2148;48.554;7.834;2022-12-07T02:45:38;11.60;;;9.77;;
4268;SDS011;2148;48.554;7.834;2022-12-07T02:48:04;11.77;;;10.20;;
4268;SDS011;2148;48.554;7.834;2022-12-07T02:50:30;13.63;;;11.10;;
4268;SDS011;2148;48.554;7.834;2022-12-07T02:52:55;13.53;;;10.53;;
4268;SDS011;2148;48.554;7.834;2022-12-07T02:55:22;10.93;;;9.73;;
4268;SDS011;2148;48.554;7.834;2022-12-07T02:58:07;11.50;;;9.67;;
4268;SDS011;2148;48.554;7.834;2022-12-07T03:00:46;11.73;;;9.50;;
4268;SDS011;2148;48.554;7.834;2022-12-07T03:03:17;10.60;;;9.50;;
4268;SDS011;2148;48.554;7.834;2022-12-07T03:05:46;11.03;;;9.67;;
4268;SDS011;2148;48.554;7.834;2022-12-07T03:09:17;13.10;;;10.27;;
4268;SDS011;2148;48.554;7.834;2022-12-07T03:11:41;12.43;;;10.00;;
4268;SDS011;2148;48.554;7.834;2022-12-07T03:14:15;13.40;;;10.07;;
4268;SDS011;2148;48.554;7.834;2022-12-07T03:16:55;11.33;;;9.47;;
4268;SDS011;2148;48.554;7.834;2022-12-07T03:19:23;13.27;;;10.90;;
4268;SDS011;2148;48.554;7.834;2022-12-07T03:21:52;14.17;;;10.20;;
4268;SDS011;2148;48.554;7.834;2022-12-07T03:24:22;13.67;;;11.23;;
4268;SDS011;2148;48.554;7.834;2022-12-07T03:26:52;12.70;;;10.23;;
4268;SDS011;2148;48.554;7.834;2022-12-07T03:29:20;13.80;;;11.80;;
4268;SDS011;2148;48.554;7.834;2022-12-07T03:32:33;15.27;;;11.40;;
4268;SDS011;2148;48.554;7.834;2022-12-07T03:34:46;13.67;;;11.10;;
4268;SDS011;2148;48.554;7.834;2022-12-07T03:37:37;14.33;;;11.33;;
4268;SDS011;2148;48.554;7.834;2022-12-07T03:40:45;14.17;;;11.10;;
4268;SDS011;2148;48.554;7.834;2022-12-07T03:43:20;15.10;;;12.13;;
4268;SDS011;2148;48.554;7.834;2022-12-07T03:46:06;16.60;;;13.60;;
4268;SDS011;2148;48.554;7.834;2022-12-07T03:48:41;17.63;;;12.70;;
4268;SDS011;2148;48.554;7.834;2022-12-07T03:51:40;16.57;;;13.57;;
4268;SDS011;2148;48.554;7.834;2022-12-07T03:54:24;17.03;;;12.40;;
4268;SDS011;2148;48.554;7.834;2022-12-07T03:56:52;17.27;;;13.50;;
4268;SDS011;2148;48.554;7.834;2022-12-07T03:59:18;17.20;;;12.67;;
4268;SDS011;2148;48.554;7.834;2022-12-07T04:01:45;17.30;;;14.33;;
4268;SDS011;2148;48.554;7.834;2022-12-07T04:04:17;18.03;;;13.20;;
4268;SDS011;2148;48.554;7.834;2022-12-07T04:06:42;15.33;;;13.00;;
4268;SDS011;2148;48.554;7.834;2022-12-07T04:09:08;16.30;;;12.73;;
4268;SDS011;2148;48.554;7.834;2022-12-07T04:11:33;16.90;;;13.20;;
4268;SDS011;2148;48.554;7.834;2022-12-07T04:13:58;16.33;;;12.27;;
4268;SDS011;2148;48.554;7.834;2022-12-07T04:16:42;15.73;;;12.40;;
4268;SDS011;2148;48.554;7.834;2022-12-07T04:19:07;18.40;;;12.93;;
4268;SDS011;2148;48.554;7.834;2022-12-07T04:21:32;15.33;;;12.33;;
4268;SDS011;2148;48.554;7.834;2022-12-07T04:23:58;17.97;;;13.23;;
4268;SDS011;2148;48.554;7.834;2022-12-07T04:26:23;15.10;;;12.43;;
4268;SDS011;2148;48.554;7.834;2022-12-07T04:28:48;15.73;;;12.07;;
4268;SDS011;2148;48.554;7.834;2022-12-07T04:31:13;14.60;;;12.07;;
4268;SDS011;2148;48.554;7.834;2022-12-07T04:33:39;15.33;;;12.50;;
4268;SDS011;2148;48.554;7.834;2022-12-07T04:36:04;16.00;;;12.37;;
4268;SDS011;2148;48.554;7.834;2022-12-07T04:38:30;16.37;;;11.53;;
4268;SDS011;2148;48.554;7.834;2022-12-07T04:40:55;14.37;;;12.07;;
4268;SDS011;2148;48.554;7.834;2022-12-07T04:43:20;13.30;;;11.47;;
4268;SDS011;2148;48.554;7.834;2022-12-07T04:45:48;16.77;;;12.57;;
4268;SDS011;2148;48.554;7.834;2022-12-07T04:48:14;14.30;;;11.67;;
4268;SDS011;2148;48.554;7.834;2022-12-07T04:50:40;16.83;;;12.57;;
4268;SDS011;2148;48.554;7.834;2022-12-07T04:53:05;14.43;;;12.60;;
4268;SDS011;2148;48.554;7.834;2022-12-07T04:55:30;15.83;;;12.07;;
4268;SDS011;2148;48.554;7.834;2022-12-07T04:57:55;16.30;;;13.47;;
4268;SDS011;2148;48.554;7.834;2022-12-07T05:00:21;16.00;;;12.63;;
4268;SDS011;2148;48.554;7.834;2022-12-07T05:02:46;18.77;;;14.27;;
4268;SDS011;2148;48.554;7.834;2022-12-07T05:05:11;18.63;;;12.77;;
4268;SDS011;2148;48.554;7.834;2022-12-07T05:07:37;14.33;;;12.00;;
4268;SDS011;2148;48.554;7.834;2022-12-07T05:10:02;16.67;;;12.67;;
4268;SDS011;2148;48.554;7.834;2022-12-07T05:12:27;19.33;;;13.47;;
4268;SDS011;2148;48.554;7.834;2022-12-07T05:14:53;21.37;;;15.40;;
4268;SDS011;2148;48.554;7.834;2022-12-07T05:17:18;18.73;;;13.93;;
4268;SDS011;2148;48.554;7.834;2022-12-07T05:19:43;14.53;;;12.23;;
4268;SDS011;2148;48.554;7.834;2022-12-07T05:22:09;15.90;;;12.20;;
4268;SDS011;2148;48.554;7.834;2022-12-07T05:24:34;17.07;;;13.50;;
4268;SDS011;2148;48.554;7.834;2022-12-07T05:26:59;18.80;;;14.83;;
4268;SDS011;2148;48.554;7.834;2022-12-07T05:29:25;22.53;;;15.73;;
4268;SDS011;2148;48.554;7.834;2022-12-07T05:31:50;16.50;;;12.77;;
4268;SDS011;2148;48.554;7.834;2022-12-07T05:34:15;16.30;;;12.70;;
4268;SDS011;2148;48.554;7.834;2022-12-07T05:36:41;18.77;;;14.00;;
4268;SDS011;2148;48.554;7.834;2022-12-07T05:39:06;17.00;;;13.20;;
4268;SDS011;2148;48.554;7.834;2022-12-07T05:41:32;17.70;;;13.10;;
4268;SDS011;2148;48.554;7.834;2022-12-07T05:44:16;17.53;;;13.30;;
4268;SDS011;2148;48.554;7.834;2022-12-07T05:46:41;16.50;;;13.23;;
4268;SDS011;2148;48.554;7.834;2022-12-07T05:49:07;18.57;;;12.70;;
4268;SDS011;2148;48.554;7.834;2022-12-07T05:51:32;18.77;;;12.33;;
4268;SDS011;2148;48.554;7.834;2022-12-07T05:53:57;16.50;;;13.20;;
4268;SDS011;2148;48.554;7.834;2022-12-07T05:56:23;20.20;;;14.50;;
4268;SDS011;2148;48.554;7.834;2022-12-07T05:58:48;16.17;;;13.23;;
4268;SDS011;2148;48.554;7.834;2022-12-07T06:01:32;14.50;;;12.23;;
4268;SDS011;2148;48.554;7.834;2022-12-07T06:03:57;16.23;;;13.07;;
4268;SDS011;2148;48.554;7.834;2022-12-07T06:06:22;17.40;;;13.43;;
4268;SDS011;2148;48.554;7.834;2022-12-07T06:08:48;15.63;;;12.87;;
4268;SDS011;2148;48.554;7.834;2022-12-07T06:11:13;14.93;;;12.40;;
4268;SDS011;2148;48.554;7.834;2022-12-07T06:13:57;18.07;;;13.37;;
4268;SDS011;2148;48.554;7.834;2022-12-07T06:16:22;17.83;;;13.43;;
4268;SDS011;2148;48.554;7.834;2022-12-07T06:18:47;18.43;;;14.13;;
4268;SDS011;2148;48.554;7.834;2022-12-07T06:21:12;19.43;;;13.80;;
4268;SDS011;2148;48.554;7.834;2022-12-07T06:23:38;17.40;;;14.23;;
4268;SDS011;2148;48.554;7.834;2022-12-07T06:26:03;18.17;;;13.57;;
4268;SDS011;2148;48.554;7.834;2022-12-07T06:28:28;19.90;;;14.47;;
4268;SDS011;2148;48.554;7.834;2022-12-07T06:30:57;19.43;;;14.83;;
4268;SDS011;2148;48.554;7.834;2022-12-07T06:33:23;20.17;;;14.60;;
4268;SDS011;2148;48.554;7.834;2022-12-07T06:35:49;19.50;;;14.10;;
4268;SDS011;2148;48.554;7.834;2022-12-07T06:38:14;20.10;;;15.30;;
4268;SDS011;2148;48.554;7.834;2022-12-07T06:40:39;18.83;;;13.93;;
4268;SDS011;2148;48.554;7.834;2022-12-07T06:43:05;21.33;;;14.23;;
4268;SDS011;2148;48.554;7.834;2022-12-07T06:45:30;17.50;;;14.27;;
4268;SDS011;2148;48.554;7.834;2022-12-07T06:47:55;19.23;;;13.97;;
4268;SDS011;2148;48.554;7.834;2022-12-07T06:50:20;21.10;;;14.07;;
4268;SDS011;2148;48.554;7.834;2022-12-07T06:52:45;17.73;;;13.77;;
4268;SDS011;2148;48.554;7.834;2022-12-07T06:55:11;18.00;;;13.20;;
4268;SDS011;2148;48.554;7.834;2022-12-07T06:57:36;18.10;;;14.23;;
4268;SDS011;2148;48.554;7.834;2022-12-07T07:00:02;19.67;;;14.10;;
4268;SDS011;2148;48.554;7.834;2022-12-07T07:02:28;21.00;;;14.77;;
4268;SDS011;2148;48.554;7.834;2022-12-07T07:04:53;18.87;;;14.20;;
4268;SDS011;2148;48.554;7.834;2022-12-07T07:07:18;21.00;;;15.17;;
4268;SDS011;2148;48.554;7.834;2022-12-07T07:09:43;18.77;;;14.43;;
4268;SDS011;2148;48.554;7.834;2022-12-07T07:12:09;18.77;;;14.77;;
4268;SDS011;2148;48.554;7.834;2022-12-07T07:14:34;18.27;;;14.17;;
4268;SDS011;2148;48.554;7.834;2022-12-07T07:16:59;19.97;;;14.53;;
4268;SDS011;2148;48.554;7.834;2022-12-07T07:19:25;18.07;;;14.50;;
4268;SDS011;2148;48.554;7.834;2022-12-07T07:21:50;20.20;;;14.53;;
4268;SDS011;2148;48.554;7.834;2022-12-07T07:24:15;17.43;;;13.63;;
4268;SDS011;2148;48.554;7.834;2022-12-07T07:26:41;16.83;;;13.13;;
4268;SDS011;2148;48.554;7.834;2022-12-07T07:29:06;18.33;;;13.90;;
4268;SDS011;2148;48.554;7.834;2022-12-07T07:31:32;15.63;;;12.43;;
4268;SDS011;2148;48.554;7.834;2022-12-07T07:34:00;19.97;;;14.43;;
4268;SDS011;2148;48.554;7.834;2022-12-07T07:36:25;19.30;;;14.47;;
4268;SDS011;2148;48.554;7.834;2022-12-07T07:38:50;19.57;;;14.60;;
4268;SDS011;2148;48.554;7.834;2022-12-07T07:41:16;18.83;;;14.57;;
4268;SDS011;2148;48.554;7.834;2022-12-07T07:43:41;18.97;;;14.80;;
4268;SDS011;2148;48.554;7.834;2022-12-07T07:46:06;20.20;;;14.63;;
4268;SDS011;2148;48.554;7.834;2022-12-07T07:48:31;17.40;;;14.30;;
4268;SDS011;2148;48.554;7.834;2022-12-07T07:50:57;22.00;;;16.70;;
4268;SDS011;2148;48.554;7.834;2022-12-07T07:53:22;22.30;;;18.23;;
4268;SDS011;2148;48.554;7.834;2022-12-07T07:55:51;31.00;;;22.70;;
4268;SDS011;2148;48.554;7.834;2022-12-07T07:58:17;20.87;;;15.27;;
4268;SDS011;2148;48.554;7.834;2022-12-07T08:00:42;18.33;;;13.60;;
4268;SDS011;2148;48.554;7.834;2022-12-07T08:03:08;16.77;;;12.93;;
4268;SDS011;2148;48.554;7.834;2022-12-07T08:05:33;18.80;;;12.93;;
4268;SDS011;2148;48.554;7.834;2022-12-07T08:07:58;16.53;;;13.07;;
4268;SDS011;2148;48.554;7.834;2022-12-07T08:10:23;18.03;;;12.63;;
4268;SDS011;2148;48.554;7.834;2022-12-07T08:12:49;16.53;;;13.37;;
4268;SDS011;2148;48.554;7.834;2022-12-07T08:15:33;13.73;;;11.53;;
4268;SDS011;2148;48.554;7.834;2022-12-07T08:17:58;18.03;;;14.67;;
4268;SDS011;2148;48.554;7.834;2022-12-07T08:20:23;15.70;;;11.67;;
4268;SDS011;2148;48.554;7.834;2022-12-07T08:22:49;14.27;;;12.13;;
4268;SDS011;2148;48.554;7.834;2022-12-07T08:25:14;15.03;;;11.50;;
4268;SDS011;2148;48.554;7.834;2022-12-07T08:27:40;15.97;;;12.47;;
4268;SDS011;2148;48.554;7.834;2022-12-07T08:30:05;15.37;;;11.97;;
4268;SDS011;2148;48.554;7.834;2022-12-07T08:32:31;14.00;;;11.23;;
4268;SDS011;2148;48.554;7.834;2022-12-07T08:34:56;15.57;;;12.57;;
4268;SDS011;2148;48.554;7.834;2022-12-07T08:37:21;14.13;;;10.63;;
4268;SDS011;2148;48.554;7.834;2022-12-07T08:39:47;15.07;;;11.00;;
4268;SDS011;2148;48.554;7.834;2022-12-07T08:42:12;13.33;;;11.30;;
4268;SDS011;2148;48.554;7.834;2022-12-07T08:44:37;15.17;;;11.37;;
4268;SDS011;2148;48.554;7.834;2022-12-07T08:47:04;14.67;;;11.20;;
4268;SDS011;2148;48.554;7.834;2022-12-07T08:49:33;13.77;;;10.67;;
4268;SDS011;2148;48.554;7.834;2022-12-07T08:52:02;13.10;;;10.80;;
4268;SDS011;2148;48.554;7.834;2022-12-07T08:54:29;14.43;;;11.40;;
4268;SDS011;2148;48.554;7.834;2022-12-07T08:56:55;12.90;;;10.80;;
4268;SDS011;2148;48.554;7.834;2022-12-07T08:59:20;14.63;;;11.00;;
4268;SDS011;2148;48.554;7.834;2022-12-07T09:01:46;15.17;;;10.87;;
4268;SDS011;2148;48.554;7.834;2022-12-07T09:04:11;14.90;;;11.00;;
4268;SDS011;2148;48.554;7.834;2022-12-07T09:06:36;16.37;;;11.23;;
4268;SDS011;2148;48.554;7.834;2022-12-07T09:09:02;14.63;;;11.73;;
4268;SDS011;2148;48.554;7.834;2022-12-07T09:11:29;12.90;;;8.83;;
4268;SDS011;2148;48.554;7.834;2022-12-07T09:13:54;11.60;;;10.07;;
4268;SDS011;2148;48.554;7.834;2022-12-07T09:16:20;12.83;;;9.97;;
4268;SDS011;2148;48.554;7.834;2022-12-07T09:18:45;13.20;;;11.23;;
4268;SDS011;2148;48.554;7.834;2022-12-07T09:21:10;14.90;;;11.37;;
4268;SDS011;2148;48.554;7.834;2022-12-07T09:23:35;14.70;;;10.90;;
4268;SDS011;2148;48.554;7.834;2022-12-07T09:26:01;13.53;;;10.57;;
4268;SDS011;2148;48.554;7.834;2022-12-07T09:28:28;14.27;;;10.80;;
4268;SDS011;2148;48.554;7.834;2022-12-07T09:30:55;13.57;;;10.37;;
4268;SDS011;2148;48.554;7.834;2022-12-07T09:33:20;13.17;;;9.83;;
4268;SDS011;2148;48.554;7.834;2022-12-07T09:35:46;14.20;;;11.47;;
4268;SDS011;2148;48.554;7.834;2022-12-07T09:38:12;14.87;;;12.07;;
4268;SDS011;2148;48.554;7.834;2022-12-07T09:40:38;15.70;;;12.33;;
4268;SDS011;2148;48.554;7.834;2022-12-07T09:43:03;17.67;;;12.90;;
4268;SDS011;2148;48.554;7.834;2022-12-07T09:45:33;15.47;;;11.43;;
4268;SDS011;2148;48.554;7.834;2022-12-07T09:47:59;13.60;;;11.53;;
4268;SDS011;2148;48.554;7.834;2022-12-07T09:50:25;13.97;;;11.90;;
4268;SDS011;2148;48.554;7.834;2022-12-07T09:52:52;13.43;;;11.57;;
4268;SDS011;2148;48.554;7.834;2022-12-07T09:55:25;16.37;;;11.53;;
4268;SDS011;2148;48.554;7.834;2022-12-07T09:57:53;14.13;;;12.03;;
4268;SDS011;2148;48.554;7.834;2022-12-07T10:00:19;15.80;;;11.43;;
4268;SDS011;2148;48.554;7.834;2022-12-07T10:05:17;13.80;;;11.70;;
4268;SDS011;2148;48.554;7.834;2022-12-07T10:07:45;15.90;;;11.47;;
4268;SDS011;2148;48.554;7.834;2022-12-07T10:10:15;14.23;;;10.83;;
4268;SDS011;2148;48.554;7.834;2022-12-07T10:12:55;12.23;;;9.83;;
4268;SDS011;2148;48.554;7.834;2022-12-07T10:15:23;12.90;;;10.53;;
4268;SDS011;2148;48.554;7.834;2022-12-07T10:17:49;14.90;;;11.50;;
4268;SDS011;2148;48.554;7.834;2022-12-07T10:20:22;15.07;;;11.00;;
4268;SDS011;2148;48.554;7.834;2022-12-07T10:22:57;16.20;;;11.57;;
4268;SDS011;2148;48.554;7.834;2022-12-07T10:25:28;16.07;;;10.87;;
4268;SDS011;2148;48.554;7.834;2022-12-07T10:27:58;11.87;;;9.67;;
4268;SDS011;2148;48.554;7.834;2022-12-07T10:30:29;13.00;;;9.80;;
4268;SDS011;2148;48.554;7.834;2022-12-07T10:32:55;11.83;;;9.73;;
4268;SDS011;2148;48.554;7.834;2022-12-07T10:35:24;14.03;;;10.00;;
4268;SDS011;2148;48.554;7.834;2022-12-07T10:37:52;7.37;;;5.40;;
4268;SDS011;2148;48.554;7.834;2022-12-07T10:43:03;17.73;;;11.97;;
4268;SDS011;2148;48.554;7.834;2022-12-07T10:45:30;16.77;;;11.27;;
4268;SDS011;2148;48.554;7.834;2022-12-07T10:50:52;18.03;;;11.30;;
4268;SDS011;2148;48.554;7.834;2022-12-07T10:53:36;14.40;;;10.87;;
4268;SDS011;2148;48.554;7.834;2022-12-07T10:56:17;14.60;;;10.90;;
4268;SDS011;2148;48.554;7.834;2022-12-07T11:01:29;14.57;;;11.20;;
4268;SDS011;2148;48.554;7.834;2022-12-07T11:04:05;16.67;;;11.63;;
4268;SDS011;2148;48.554;7.834;2022-12-07T11:06:47;14.70;;;11.90;;
4268;SDS011;2148;48.554;7.834;2022-12-07T11:22:57;16.57;;;11.87;;
4268;SDS011;2148;48.554;7.834;2022-12-07T11:28:28;16.43;;;11.33;;
4268;SDS011;2148;48.554;7.834;2022-12-07T11:36:35;14.90;;;10.90;;
4268;SDS011;2148;48.554;7.834;2022-12-07T11:39:04;16.17;;;11.40;;
4268;SDS011;2148;48.554;7.834;2022-12-07T11:41:38;14.83;;;10.43;;
4268;SDS011;2148;48.554;7.834;2022-12-07T11:44:24;13.17;;;10.17;;
4268;SDS011;2148;48.554;7.834;2022-12-07T11:47:14;14.60;;;10.57;;
4268;SDS011;2148;48.554;7.834;2022-12-07T11:49:45;14.30;;;10.70;;
4268;SDS011;2148;48.554;7.834;2022-12-07T11:52:23;17.17;;;11.87;;
4268;SDS011;2148;48.554;7.834;2022-12-07T11:54:52;14.10;;;10.00;;
4268;SDS011;2148;48.554;7.834;2022-12-07T11:57:30;15.43;;;10.67;;
4268;SDS011;2148;48.554;7.834;2022-12-07T12:00:01;14.67;;;10.30;;
4268;SDS011;2148;48.554;7.834;2022-12-07T12:02:41;14.03;;;10.63;;
4268;SDS011;2148;48.554;7.834;2022-12-07T12:08:04;13.23;;;9.53;;
4268;SDS011;2148;48.554;7.834;2022-12-07T12:10:45;13.87;;;11.13;;
4268;SDS011;2148;48.554;7.834;2022-12-07T12:21:36;17.37;;;10.97;;
4268;SDS011;2148;48.554;7.834;2022-12-07T12:24:04;14.87;;;11.03;;
4268;SDS011;2148;48.554;7.834;2022-12-07T12:26:36;14.07;;;10.93;;
4268;SDS011;2148;48.554;7.834;2022-12-07T12:29:05;14.23;;;9.40;;
4268;SDS011;2148;48.554;7.834;2022-12-07T12:31:37;10.37;;;7.03;;
4268;SDS011;2148;48.554;7.834;2022-12-07T12:34:29;14.67;;;10.83;;
4268;SDS011;2148;48.554;7.834;2022-12-07T12:45:28;13.53;;;11.03;;
4268;SDS011;2148;48.554;7.834;2022-12-07T12:50:37;13.97;;;10.50;;
4268;SDS011;2148;48.554;7.834;2022-12-07T12:53:03;14.77;;;11.00;;
4268;SDS011;2148;48.554;7.834;2022-12-07T12:58:43;12.70;;;9.80;;
4268;SDS011;2148;48.554;7.834;2022-12-07T13:04:00;14.43;;;10.53;;
4268;SDS011;2148;48.554;7.834;2022-12-07T13:08:56;13.10;;;10.10;;
4268;SDS011;2148;48.554;7.834;2022-12-07T13:11:36;13.73;;;11.23;;
4268;SDS011;2148;48.554;7.834;2022-12-07T13:17:02;12.23;;;10.10;;
4268;SDS011;2148;48.554;7.834;2022-12-07T13:24:56;12.10;;;9.47;;
4268;SDS011;2148;48.554;7.834;2022-12-07T13:27:37;13.17;;;11.60;;
4268;SDS011;2148;48.554;7.834;2022-12-07T13:30:07;14.73;;;10.10;;
4268;SDS011;2148;48.554;7.834;2022-12-07T13:32:41;11.37;;;9.50;;
4268;SDS011;2148;48.554;7.834;2022-12-07T13:38:04;9.27;;;8.00;;
4268;SDS011;2148;48.554;7.834;2022-12-07T13:40:30;10.97;;;8.77;;
4268;SDS011;2148;48.554;7.834;2022-12-07T13:43:00;11.13;;;8.97;;
4268;SDS011;2148;48.554;7.834;2022-12-07T13:45:27;12.93;;;8.70;;
4268;SDS011;2148;48.554;7.834;2022-12-07T13:48:33;10.33;;;9.20;;
4268;SDS011;2148;48.554;7.834;2022-12-07T13:51:02;10.03;;;8.13;;
4268;SDS011;2148;48.554;7.834;2022-12-07T13:53:29;10.57;;;9.07;;
4268;SDS011;2148;48.554;7.834;2022-12-07T13:55:55;14.33;;;11.40;;
4268;SDS011;2148;48.554;7.834;2022-12-07T13:58:21;10.93;;;9.30;;
4268;SDS011;2148;48.554;7.834;2022-12-07T14:00:47;11.27;;;8.43;;
4268;SDS011;2148;48.554;7.834;2022-12-07T14:05:38;10.70;;;8.50;;
4268;SDS011;2148;48.554;7.834;2022-12-07T14:08:05;11.37;;;9.20;;
4268;SDS011;2148;48.554;7.834;2022-12-07T14:10:40;10.53;;;8.17;;
4268;SDS011;2148;48.554;7.834;2022-12-07T14:13:27;12.17;;;9.60;;
4268;SDS011;2148;48.554;7.834;2022-12-07T14:16:01;9.87;;;8.60;;
4268;SDS011;2148;48.554;7.834;2022-12-07T14:18:29;11.37;;;8.77;;
4268;SDS011;2148;48.554;7.834;2022-12-07T14:23:34;9.83;;;7.73;;
4268;SDS011;2148;48.554;7.834;2022-12-07T14:26:18;9.53;;;7.53;;
4268;SDS011;2148;48.554;7.834;2022-12-07T14:28:45;8.87;;;7.97;;
4268;SDS011;2148;48.554;7.834;2022-12-07T14:31:11;8.33;;;7.37;;
4268;SDS011;2148;48.554;7.834;2022-12-07T14:33:39;9.63;;;7.97;;
4268;SDS011;2148;48.554;7.834;2022-12-07T14:36:05;9.93;;;7.87;;
4268;SDS011;2148;48.554;7.834;2022-12-07T14:38:30;8.97;;;7.70;;
4268;SDS011;2148;48.554;7.834;2022-12-07T14:40:56;9.30;;;7.77;;
4268;SDS011;2148;48.554;7.834;2022-12-07T14:43:41;9.60;;;7.83;;
4268;SDS011;2148;48.554;7.834;2022-12-07T14:46:06;9.57;;;8.67;;
4268;SDS011;2148;48.554;7.834;2022-12-07T14:48:32;8.03;;;7.23;;
4268;SDS011;2148;48.554;7.834;2022-12-07T14:50:57;9.60;;;7.23;;
4268;SDS011;2148;48.554;7.834;2022-12-07T14:53:24;8.90;;;7.10;;
4268;SDS011;2148;48.554;7.834;2022-12-07T14:55:54;9.03;;;7.43;;
4268;SDS011;2148;48.554;7.834;2022-12-07T14:58:19;8.50;;;7.10;;
4268;SDS011;2148;48.554;7.834;2022-12-07T15:00:45;9.70;;;7.77;;
4268;SDS011;2148;48.554;7.834;2022-12-07T15:03:10;9.37;;;7.57;;
4268;SDS011;2148;48.554;7.834;2022-12-07T15:05:37;10.37;;;7.30;;
4268;SDS011;2148;48.554;7.834;2022-12-07T15:08:03;9.23;;;7.60;;
4268;SDS011;2148;48.554;7.834;2022-12-07T15:10:30;9.13;;;7.07;;
4268;SDS011;2148;48.554;7.834;2022-12-07T15:12:58;8.23;;;7.07;;
4268;SDS011;2148;48.554;7.834;2022-12-07T15:15:46;12.30;;;8.50;;
4268;SDS011;2148;48.554;7.834;2022-12-07T15:18:13;11.57;;;10.33;;
4268;SDS011;2148;48.554;7.834;2022-12-07T15:20:38;13.77;;;10.60;;
4268;SDS011;2148;48.554;7.834;2022-12-07T15:23:04;16.10;;;12.20;;
4268;SDS011;2148;48.554;7.834;2022-12-07T15:25:29;17.17;;;12.57;;
4268;SDS011;2148;48.554;7.834;2022-12-07T15:27:54;17.90;;;12.53;;
4268;SDS011;2148;48.554;7.834;2022-12-07T15:30:19;15.13;;;12.40;;
4268;SDS011;2148;48.554;7.834;2022-12-07T15:32:48;12.33;;;10.17;;
4268;SDS011;2148;48.554;7.834;2022-12-07T15:35:14;12.57;;;10.50;;
4268;SDS011;2148;48.554;7.834;2022-12-07T15:37:40;12.10;;;9.77;;
4268;SDS011;2148;48.554;7.834;2022-12-07T15:40:05;12.30;;;11.00;;
4268;SDS011;2148;48.554;7.834;2022-12-07T15:42:31;12.13;;;9.73;;
4268;SDS011;2148;48.554;7.834;2022-12-07T15:44:56;11.50;;;9.40;;
4268;SDS011;2148;48.554;7.834;2022-12-07T15:47:35;16.40;;;10.47;;
4268;SDS011;2148;48.554;7.834;2022-12-07T15:50:04;11.43;;;10.17;;
4268;SDS011;2148;48.554;7.834;2022-12-07T15:52:32;10.87;;;9.67;;
4268;SDS011;2148;48.554;7.834;2022-12-07T15:54:57;13.83;;;10.93;;
4268;SDS011;2148;48.554;7.834;2022-12-07T15:57:24;12.97;;;10.50;;
4268;SDS011;2148;48.554;7.834;2022-12-07T15:59:50;15.90;;;11.13;;
4268;SDS011;2148;48.554;7.834;2022-12-07T16:02:15;13.73;;;11.17;;
4268;SDS011;2148;48.554;7.834;2022-12-07T16:04:40;15.70;;;13.33;;
4268;SDS011;2148;48.554;7.834;2022-12-07T16:07:06;15.80;;;13.00;;
4268;SDS011;2148;48.554;7.834;2022-12-07T16:09:31;14.40;;;11.23;;
4268;SDS011;2148;48.554;7.834;2022-12-07T16:11:56;14.60;;;10.93;;
4268;SDS011;2148;48.554;7.834;2022-12-07T16:14:22;16.67;;;12.90;;
4268;SDS011;2148;48.554;7.834;2022-12-07T16:16:47;17.77;;;13.43;;
4268;SDS011;2148;48.554;7.834;2022-12-07T16:19:13;15.23;;;12.70;;
4268;SDS011;2148;48.554;7.834;2022-12-07T16:21:38;16.10;;;12.50;;
4268;SDS011;2148;48.554;7.834;2022-12-07T16:24:04;15.93;;;12.80;;
4268;SDS011;2148;48.554;7.834;2022-12-07T16:26:30;18.50;;;13.60;;
4268;SDS011;2148;48.554;7.834;2022-12-07T16:28:56;16.70;;;13.53;;
4268;SDS011;2148;48.554;7.834;2022-12-07T16:31:22;16.87;;;13.40;;